KOXV

Knoxville Municipal Airport

Knoxville, Iowa, USA
METAR KOXV 212135Z AUTO VRB06KT 6SM -DZ FEW026 SCT034 BKN049 22/17 A2971 RMK AO2
Observed Flight Rules
Jun-21 @ 21:35 UTC (30 minutes ago) Visual Flight Rules
Wind Visibility Clouds Conditions
Variable at 6 knots 6 miles
  • Few at 2,600' AGL
  • Scattered at 3,400' AGL
  • Broken at 4,900' AGL
  • Light Drizzle
Temperatures Readings
Current 22°C / 72°F
Dewpoint 17°C / 63°F
Humidity 73%
Altimeter 29.71" Hg
Pressure 1006 hPa
Elevation 283
METAR KOXV 212135Z AUTO VRB06KT 6SM -DZ FEW026 SCT034 BKN049 22/17 A2971 RMK AO2
Observed Flight Rules
Jun-21 @ 21:35 UTC
(30 minutes ago)
VFR
Wind Visibility
Variable at 6 knots 6 miles
Clouds
  • Few at 2,600' AGL
  • Scattered at 3,400' AGL
  • Broken at 4,900' AGL
Conditions
  • Light Drizzle
Temperature Dewpoint
22°C / 72°F 17°C / 63°F
Humidity Altimeter Pressure
73% 29.71" Hg 1006 hPa